»·PEaware :: SWA1840 KRNO-KSAN

SWA1840 :: KRNO-KSAN

FLIGHT INFORMATION

Flight Status: Arrived
Operator:
Southwest Airlines
More flights by this operator :: More flights under this callsign
Pilot: Ben F. (2808)
Aircraft: BOEING 737-800
(B738)
More flights by this aircraft type
Origin: KRNO Reno/Tahoe Intl
United States
Destination: KSAN San Diego Intl-Lindbergh
United States
More flights between these airports :: More routes between these airports
Route: ZEFFR6 DARBI EHF HUULK COMIX2
File this flight plan on PilotEdge
Remarks:
Altitude:
(Current/Filed)
37,000ft
Speed:
(Current/Filed)
461kts
Departed: 01-Aug-20 08:36 AM
Arrived: 01-Aug-20 09:45 AM
Distance/Time
Traveled:
425nm/1:09
Distance/Time
To Go:
Arrived

Flight Plot

Page will automatically refresh every two minutes.


Map Options




Map Legend


Flown Route
Filed Route
Departure Airport
Arrival Airport
Navaid (VOR, NDB)
Fix

Horizontal Profiles

Position Reports

Time Latitude Longitude Heading Altitude Ground
Speed
01-Aug-20 08:11 39.504460 -119.773761 359 4423ft 0kts
01-Aug-20 08:12 39.504460 -119.773761 359 4423ft 0kts
01-Aug-20 08:13 39.504460 -119.773761 359 4423ft 0kts
01-Aug-20 08:14 39.504460 -119.773761 359 4423ft 0kts
01-Aug-20 08:15 39.504460 -119.773761 359 4423ft 0kts
01-Aug-20 08:16 39.504460 -119.773761 359 4423ft 0kts
01-Aug-20 08:17 39.504460 -119.773761 359 4423ft 0kts
01-Aug-20 08:18 39.504460 -119.773761 359 4423ft 0kts
01-Aug-20 08:19 39.504460 -119.773761 359 4423ft 0kts
01-Aug-20 08:20 39.504460 -119.773761 359 4423ft 0kts
01-Aug-20 08:21 39.504460 -119.773761 359 4423ft 0kts
01-Aug-20 08:22 39.504460 -119.773761 359 4423ft 0kts
01-Aug-20 08:23 39.504460 -119.773761 359 4423ft 0kts
01-Aug-20 08:24 39.504460 -119.773761 359 4423ft 0kts
01-Aug-20 08:25 39.504197 -119.773764 2 4423ft 2kts
01-Aug-20 08:26 39.503668 -119.773965 47 4423ft 0kts
01-Aug-20 08:27 39.503668 -119.773965 47 4423ft 0kts
01-Aug-20 08:28 39.503753 -119.773325 91 4423ft 5kts
01-Aug-20 08:29 39.503942 -119.771477 5 4423ft 8kts
01-Aug-20 08:30 39.507867 -119.771488 0 4423ft 19kts
01-Aug-20 08:31 39.512731 -119.771469 0 4423ft 15kts
01-Aug-20 08:32 39.513769 -119.770312 93 4423ft 0kts
01-Aug-20 08:33 39.513769 -119.770310 93 4423ft 0kts
01-Aug-20 08:34 39.513668 -119.767025 119 4423ft 5kts
01-Aug-20 08:35 39.499088 -119.766793 179 4423ft 136kts
01-Aug-20 08:36 39.450336 -119.767488 180 5852ft 196kts
01-Aug-20 08:37 39.394023 -119.768967 181 7874ft 225kts
01-Aug-20 08:38 39.320439 -119.769738 180 9128ft 292kts
01-Aug-20 08:39 39.237559 -119.766832 178 11407ft 317kts
01-Aug-20 08:40 39.141545 -119.763056 178 12813ft 362kts
01-Aug-20 08:41 39.038398 -119.759128 179 15049ft 377kts
01-Aug-20 08:42 38.931210 -119.755089 179 17119ft 393kts
01-Aug-20 08:43 38.819898 -119.750910 179 19044ft 407kts
01-Aug-20 08:44 38.704753 -119.746612 179 20774ft 420kts
01-Aug-20 08:45 38.585826 -119.742174 179 22334ft 433kts
01-Aug-20 08:46 38.463996 -119.737655 179 23700ft 444kts
01-Aug-20 08:47 38.339152 -119.733047 179 25006ft 453kts
01-Aug-20 08:48 38.212993 -119.712052 170 26259ft 461kts
01-Aug-20 08:49 38.085731 -119.682005 170 27436ft 468kts
01-Aug-20 08:50 37.956936 -119.652092 170 28499ft 474kts
01-Aug-20 08:51 37.826366 -119.621706 171 29508ft 480kts
01-Aug-20 08:52 37.695674 -119.591543 171 30905ft 475kts
01-Aug-20 08:53 37.565954 -119.561730 171 32291ft 471kts
01-Aug-20 08:54 37.437208 -119.532254 172 33649ft 467kts
01-Aug-20 08:55 37.310229 -119.503279 172 34910ft 463kts
01-Aug-20 08:56 37.183673 -119.474504 173 36106ft 460kts
01-Aug-20 08:57 37.058110 -119.446050 173 37093ft 459kts
01-Aug-20 08:58 36.932715 -119.417730 174 37094ft 455kts
01-Aug-20 08:59 36.808036 -119.389667 174 37084ft 455kts
01-Aug-20 09:00 36.683027 -119.361619 174 37079ft 455kts
01-Aug-20 09:01 36.558367 -119.333742 174 37078ft 455kts
01-Aug-20 09:02 36.434082 -119.306041 174 37073ft 454kts
01-Aug-20 09:03 36.309577 -119.278380 174 37071ft 454kts
01-Aug-20 09:04 36.185189 -119.250833 174 37071ft 454kts
01-Aug-20 09:05 36.060975 -119.223415 174 37069ft 454kts
01-Aug-20 09:06 35.936282 -119.195980 174 37067ft 455kts
01-Aug-20 09:07 35.811635 -119.168637 174 37062ft 454kts
01-Aug-20 09:08 35.687386 -119.141403 174 37061ft 455kts
01-Aug-20 09:09 35.562447 -119.114217 174 37069ft 455kts
01-Aug-20 09:10 35.439476 -119.072669 160 37070ft 464kts
01-Aug-20 09:11 35.321784 -119.006735 159 37075ft 465kts
01-Aug-20 09:12 35.204378 -118.941467 159 37096ft 464kts
01-Aug-20 09:13 35.086307 -118.875742 159 37130ft 465kts
01-Aug-20 09:14 34.968657 -118.810649 159 37153ft 465kts
01-Aug-20 09:15 34.850745 -118.745515 158 37146ft 465kts
01-Aug-20 09:16 34.732637 -118.680659 158 37127ft 465kts
01-Aug-20 09:17 34.614573 -118.616108 158 37065ft 466kts
01-Aug-20 09:18 34.500575 -118.539597 151 37040ft 469kts
01-Aug-20 09:19 34.388956 -118.459576 151 37022ft 469kts
01-Aug-20 09:20 34.277812 -118.380611 151 36642ft 473kts
01-Aug-20 09:21 34.164487 -118.300151 151 33920ft 474kts
01-Aug-20 09:22 34.050954 -118.219795 151 31338ft 468kts
01-Aug-20 09:23 33.941885 -118.143201 151 29254ft 454kts
01-Aug-20 09:24 33.834578 -118.068065 152 27235ft 441kts
01-Aug-20 09:25 33.728440 -117.997990 153 25233ft 428kts
01-Aug-20 09:26 33.625507 -117.930155 153 23264ft 417kts
01-Aug-20 09:27 33.525233 -117.863735 151 21310ft 405kts
01-Aug-20 09:28 33.430390 -117.794815 142 19385ft 393kts
01-Aug-20 09:29 33.350189 -117.709032 139 17475ft 381kts
01-Aug-20 09:30 33.272052 -117.625743 139 15588ft 370kts
01-Aug-20 09:31 33.195974 -117.545277 140 13784ft 361kts
01-Aug-20 09:32 33.120337 -117.468564 147 12015ft 351kts
01-Aug-20 09:33 33.041175 -117.403538 146 10319ft 344kts
01-Aug-20 09:34 32.963423 -117.369305 203 9787ft 287kts
01-Aug-20 09:35 32.892812 -117.416119 212 7984ft 292kts
01-Aug-20 09:36 32.822771 -117.464264 212 6157ft 286kts
01-Aug-20 09:37 32.752364 -117.502818 177 4437ft 281kts
01-Aug-20 09:38 32.715555 -117.439008 66 3055ft 250kts
01-Aug-20 09:39 32.770356 -117.405374 24 2063ft 218kts
01-Aug-20 09:40 32.776668 -117.350078 107 1958ft 172kts
01-Aug-20 09:41 32.762535 -117.298469 107 2003ft 158kts
01-Aug-20 09:42 32.748058 -117.247778 106 1252ft 151kts
01-Aug-20 09:43 32.736430 -117.201541 108 58ft 137kts
01-Aug-20 09:45 32.729916 -117.176711 194 23ft 19kts
01-Aug-20 09:46 32.730249 -117.180291 285 23ft 21kts
01-Aug-20 09:47 32.731747 -117.186450 288 23ft 17kts
01-Aug-20 09:48 32.733072 -117.191992 285 23ft 20kts
01-Aug-20 09:49 32.732397 -117.195319 310 23ft 5kts
01-Aug-20 09:50 32.732487 -117.195440 310 23ft 0kts
01-Aug-20 09:51 32.732487 -117.195440 310 23ft 0kts
01-Aug-20 09:52 32.732487 -117.195440 310 23ft 0kts
01-Aug-20 09:53 32.732487 -117.195440 310 23ft 0kts
01-Aug-20 09:54 32.732487 -117.195440 310 23ft 0kts
01-Aug-20 09:55 32.732487 -117.195440 310 23ft 0kts
01-Aug-20 09:56 32.732487 -117.195440 310 23ft 0kts
01-Aug-20 09:57 32.732487 -117.195440 310 23ft 0kts
01-Aug-20 09:58 32.732487 -117.195440 310 23ft 0kts
01-Aug-20 09:59 32.732487 -117.195440 310 23ft 0kts

Navigation Log

Ident Type
Flight plan parsing failed, navigation log unavailable